Time;durP1;ratioP1;P1;durP2;ratioP2;P2;SDS_P1;SDS_P2;PMS_P1;PMS_P2;Temp;Humidity;BMP_temperature;BMP_pressure;BME280_temperature;BME280_humidity;BME280_pressure;Samples;Min_cycle;Max_cycle;Signal;HPM_P1;HPM_P2
2023/07/17 00:01:20;;;;;;;9.73;4.80;;;16.50;99.90;;;;;;5038739;28;20100;-78
2023/07/17 00:03:46;;;;;;;9.45;4.80;;;16.50;99.90;;;;;;5048506;28;20421;-77
2023/07/17 00:06:12;;;;;;;9.60;5.38;;;16.50;99.90;;;;;;5043152;28;20446;-77
2023/07/17 00:08:38;;;;;;;7.65;4.68;;;16.50;99.90;;;;;;5050833;28;20062;-78
2023/07/17 00:11:03;;;;;;;7.03;4.05;;;16.50;99.90;;;;;;5058875;28;20049;-78
2023/07/17 00:13:29;;;;;;;8.48;5.05;;;16.50;99.90;;;;;;5061388;28;20041;-77
2023/07/17 00:15:55;;;;;;;8.65;4.60;;;16.50;99.90;;;;;;5059482;28;20450;-78
2023/07/17 00:18:21;;;;;;;7.85;4.70;;;16.40;99.90;;;;;;5056691;28;20072;-78
2023/07/17 00:20:46;;;;;;;7.38;4.32;;;16.50;99.90;;;;;;5053116;28;20037;-77
2023/07/17 00:23:12;;;;;;;7.43;4.28;;;16.50;99.90;;;;;;5064361;28;20044;-78
2023/07/17 00:25:38;;;;;;;6.85;4.28;;;16.50;99.90;;;;;;5059045;28;20147;-79
2023/07/17 00:28:03;;;;;;;8.93;4.85;;;16.40;99.90;;;;;;5041025;28;20036;-78
2023/07/17 00:30:29;;;;;;;8.23;4.63;;;16.40;99.90;;;;;;5027433;28;20052;-77
2023/07/17 00:32:55;;;;;;;7.80;3.97;;;16.40;99.90;;;;;;5042595;28;20521;-76
2023/07/17 00:35:21;;;;;;;8.23;4.20;;;16.40;99.90;;;;;;5060066;28;20131;-77
2023/07/17 00:37:46;;;;;;;10.60;4.53;;;16.40;99.90;;;;;;5060691;28;20086;-76
2023/07/17 00:40:13;;;;;;;8.65;4.30;;;16.40;99.90;;;;;;5045246;28;20083;-76
2023/07/17 00:42:39;;;;;;;8.05;3.67;;;16.40;99.90;;;;;;5057001;28;20048;-76
2023/07/17 00:45:06;;;;;;;8.95;4.07;;;16.40;99.90;;;;;;5059738;28;20692;-76
2023/07/17 00:47:32;;;;;;;8.73;3.83;;;16.30;99.90;;;;;;5058782;28;20090;-76
2023/07/17 00:49:59;;;;;;;8.18;3.58;;;16.30;99.90;;;;;;5058809;28;20048;-77
2023/07/17 00:52:26;;;;;;;7.40;3.58;;;16.20;99.90;;;;;;5034959;28;20048;-76
2023/07/17 00:54:52;;;;;;;7.85;2.72;;;16.20;99.90;;;;;;5059924;28;20509;-76
2023/07/17 00:57:19;;;;;;;5.32;2.70;;;16.20;99.90;;;;;;5035383;28;20091;-76
2023/07/17 00:59:45;;;;;;;5.80;2.50;;;16.10;99.90;;;;;;5061384;28;20056;-76
2023/07/17 01:02:13;;;;;;;7.78;3.03;;;16.00;99.90;;;;;;5048044;28;20041;-76
2023/07/17 01:04:44;;;;;;;5.30;2.47;;;15.90;99.90;;;;;;5066036;28;20130;-75
2023/07/17 01:07:10;;;;;;;7.55;2.80;;;15.90;99.90;;;;;;5049963;28;20048;-76
2023/07/17 01:09:36;;;;;;;5.82;2.35;;;15.90;99.90;;;;;;5064535;28;20059;-76
2023/07/17 01:12:01;;;;;;;5.80;2.50;;;15.80;99.90;;;;;;5069327;28;20032;-75
2023/07/17 01:14:28;;;;;;;7.43;2.80;;;15.80;99.90;;;;;;5066466;28;20418;-76
2023/07/17 01:16:54;;;;;;;8.18;2.83;;;15.80;99.90;;;;;;5063520;28;20036;-75
2023/07/17 01:19:20;;;;;;;7.47;2.80;;;15.70;99.90;;;;;;5043348;28;20040;-76
2023/07/17 01:21:56;;;;;;;5.47;2.33;;;15.70;99.90;;;;;;5063914;28;20051;-76
2023/07/17 01:24:22;;;;;;;7.05;2.92;;;15.70;99.90;;;;;;5046732;28;20048;-76
2023/07/17 01:26:48;;;;;;;6.80;2.83;;;15.60;99.90;;;;;;5064426;28;20041;-75
2023/07/17 01:29:13;;;;;;;6.20;2.70;;;15.60;99.90;;;;;;5032555;28;20411;-76
2023/07/17 01:31:41;;;;;;;6.53;2.63;;;15.60;99.90;;;;;;5047078;28;20095;-76
2023/07/17 01:34:07;;;;;;;7.22;2.65;;;15.60;99.90;;;;;;5050344;28;20036;-75
2023/07/17 01:36:33;;;;;;;8.07;3.30;;;15.60;99.90;;;;;;5043788;28;20083;-76
2023/07/17 01:38:59;;;;;;;7.97;3.05;;;15.60;99.90;;;;;;5070061;28;20083;-76
2023/07/17 01:41:25;;;;;;;6.00;2.63;;;15.60;99.90;;;;;;5052772;28;20036;-75
2023/07/17 01:43:51;;;;;;;8.43;2.92;;;15.50;99.90;;;;;;5062265;28;20040;-76
2023/07/17 01:46:17;;;;;;;8.68;2.97;;;15.50;99.90;;;;;;5055137;28;20505;-76
2023/07/17 01:48:42;;;;;;;7.90;3.35;;;15.50;99.90;;;;;;5045064;28;20083;-76
2023/07/17 01:51:08;;;;;;;6.60;2.72;;;15.50;99.90;;;;;;5068868;28;20093;-76
2023/07/17 01:53:34;;;;;;;6.97;2.97;;;15.50;99.90;;;;;;5045474;28;20056;-76
2023/07/17 01:56:00;;;;;;;6.50;2.85;;;15.50;99.90;;;;;;5064494;28;20060;-75
2023/07/17 01:58:26;;;;;;;5.72;2.67;;;15.50;99.90;;;;;;5062494;28;20461;-76
2023/07/17 02:00:56;;;;;;;7.72;2.92;;;15.40;99.90;;;;;;5062003;28;20127;-76
2023/07/17 02:03:22;;;;;;;7.00;2.72;;;15.50;99.90;;;;;;5043146;28;20041;-76
2023/07/17 02:05:49;;;;;;;6.68;3.80;;;15.40;99.90;;;;;;5047179;28;20057;-76
2023/07/17 02:08:15;;;;;;;9.07;3.55;;;15.40;99.90;;;;;;5045517;28;20053;-76
2023/07/17 02:10:50;;;;;;;5.43;3.10;;;15.40;99.90;;;;;;5061581;28;20094;-76
2023/07/17 02:13:16;;;;;;;10.15;3.20;;;15.40;99.90;;;;;;5041932;28;20076;-77
2023/07/17 02:15:42;;;;;;;7.45;3.25;;;15.40;99.90;;;;;;5042653;28;20083;-77
2023/07/17 02:18:10;;;;;;;7.63;2.80;;;15.40;99.90;;;;;;5036049;28;20052;-76
2023/07/17 02:20:36;;;;;;;6.13;2.88;;;15.40;99.90;;;;;;5063954;28;20113;-77
2023/07/17 02:23:02;;;;;;;6.68;3.15;;;15.40;99.90;;;;;;5057903;28;20037;-76
2023/07/17 02:25:28;;;;;;;7.38;2.67;;;15.30;99.90;;;;;;5065515;28;20052;-76
2023/07/17 02:27:57;;;;;;;6.28;2.58;;;15.30;99.90;;;;;;5048519;28;20107;-77
2023/07/17 02:30:23;;;;;;;8.25;2.92;;;15.30;99.90;;;;;;5049001;28;20048;-77
2023/07/17 02:32:48;;;;;;;7.88;3.28;;;15.30;99.90;;;;;;5032425;28;20045;-76
2023/07/17 02:35:14;;;;;;;8.98;3.00;;;15.30;99.90;;;;;;5037748;28;20083;-77
2023/07/17 02:37:40;;;;;;;7.40;2.58;;;15.30;99.90;;;;;;5052228;28;20462;-77
2023/07/17 02:40:12;;;;;;;11.43;3.33;;;15.30;99.90;;;;;;5064382;28;20390;-77
2023/07/17 02:42:39;;;;;;;7.88;3.25;;;15.20;99.90;;;;;;5060892;28;20049;-77
2023/07/17 02:45:13;;;;;;;7.22;3.05;;;15.20;99.90;;;;;;5040388;28;20043;-77
2023/07/17 02:47:39;;;;;;;6.43;2.55;;;15.20;99.90;;;;;;5050111;28;20077;-77
2023/07/17 02:50:07;;;;;;;10.02;3.03;;;15.20;99.90;;;;;;5059431;28;20116;-77
2023/07/17 02:52:34;;;;;;;9.00;3.25;;;15.10;99.90;;;;;;5049453;28;20054;-77
2023/07/17 02:55:04;;;;;;;8.82;3.47;;;15.10;99.90;;;;;;5036617;28;20394;-77
2023/07/17 02:57:36;;;;;;;9.13;3.57;;;15.10;99.90;;;;;;5057467;28;20755;-76
2023/07/17 03:00:08;;;;;;;10.02;3.50;;;15.00;99.90;;;;;;5033585;28;20051;-77
2023/07/17 03:02:35;;;;;;;6.68;3.05;;;15.00;99.90;;;;;;5038711;28;20045;-77
2023/07/17 03:05:04;;;;;;;6.85;3.10;;;15.00;99.90;;;;;;5033378;28;20078;-77
2023/07/17 03:07:32;;;;;;;8.63;3.22;;;15.00;99.90;;;;;;5002854;28;1314889;-77
2023/07/17 03:09:58;;;;;;;7.07;3.17;;;15.00;99.90;;;;;;5048352;28;20060;-78
2023/07/17 03:12:24;;;;;;;5.97;2.88;;;15.00;99.90;;;;;;5059910;28;20075;-77
2023/07/17 03:14:49;;;;;;;6.97;3.45;;;15.00;99.90;;;;;;5060672;28;20402;-77
2023/07/17 03:17:15;;;;;;;9.63;4.28;;;15.00;99.90;;;;;;5050146;28;20153;-77
2023/07/17 03:19:41;;;;;;;9.75;3.80;;;15.00;99.90;;;;;;5043290;28;20494;-78
2023/07/17 03:22:07;;;;;;;7.78;3.47;;;14.90;99.90;;;;;;5034092;28;20041;-78
2023/07/17 03:24:35;;;;;;;9.05;3.92;;;14.90;99.90;;;;;;5050204;28;20044;-77
2023/07/17 03:27:01;;;;;;;8.07;3.20;;;15.00;99.90;;;;;;5063110;28;20139;-78
2023/07/17 03:29:27;;;;;;;10.40;3.33;;;15.00;99.90;;;;;;5065260;28;20036;-77
2023/07/17 03:31:53;;;;;;;8.50;3.25;;;14.90;99.90;;;;;;5047558;28;20041;-78
2023/07/17 03:34:19;;;;;;;8.40;3.40;;;14.90;99.90;;;;;;5064558;28;20399;-77
2023/07/17 03:36:45;;;;;;;11.13;3.92;;;14.90;99.90;;;;;;5066588;28;20087;-77
2023/07/17 03:39:11;;;;;;;10.50;3.75;;;14.90;99.90;;;;;;5056462;28;20041;-78
2023/07/17 03:41:40;;;;;;;10.32;3.60;;;14.90;99.90;;;;;;5049881;28;20170;-78
2023/07/17 03:44:09;;;;;;;11.33;3.70;;;14.90;99.90;;;;;;5051717;28;20037;-77
2023/07/17 03:46:35;;;;;;;9.73;4.03;;;14.90;99.90;;;;;;5041704;28;20171;-78
2023/07/17 03:49:00;;;;;;;9.25;3.88;;;14.90;99.90;;;;;;5037955;28;20117;-78
2023/07/17 03:51:26;;;;;;;9.52;3.90;;;14.90;99.90;;;;;;5042545;28;20649;-77
2023/07/17 03:53:52;;;;;;;11.38;3.75;;;14.90;99.90;;;;;;5048971;28;20036;-78
2023/07/17 03:56:18;;;;;;;10.85;3.60;;;14.90;99.90;;;;;;5041131;28;20045;-78
2023/07/17 03:58:43;;;;;;;10.88;3.70;;;15.00;99.90;;;;;;5038845;28;20065;-78
2023/07/17 04:01:09;;;;;;;8.82;3.20;;;15.00;99.90;;;;;;5040769;28;20075;-78
2023/07/17 04:03:35;;;;;;;9.50;3.78;;;15.00;99.90;;;;;;5050425;28;20047;-78
2023/07/17 04:06:01;;;;;;;7.97;3.40;;;15.00;99.90;;;;;;5040331;28;20054;-77
2023/07/17 04:08:27;;;;;;;8.73;3.70;;;15.00;99.90;;;;;;5036912;28;20366;-77
2023/07/17 04:10:53;;;;;;;11.10;4.35;;;15.00;99.90;;;;;;5043792;28;20048;-77
2023/07/17 04:13:19;;;;;;;8.73;3.42;;;15.00;99.90;;;;;;5047750;28;20230;-77
2023/07/17 04:15:44;;;;;;;10.35;3.90;;;15.00;99.90;;;;;;5060578;28;20511;-77
2023/07/17 04:18:10;;;;;;;10.00;3.72;;;15.00;99.90;;;;;;5055809;28;20117;-77
2023/07/17 04:20:40;;;;;;;11.13;4.10;;;15.00;99.90;;;;;;5045976;28;20518;-77
2023/07/17 04:23:06;;;;;;;8.18;3.55;;;15.00;99.90;;;;;;5061468;28;20127;-78
2023/07/17 04:25:32;;;;;;;10.77;3.97;;;15.00;99.90;;;;;;5055559;28;20052;-77
2023/07/17 04:27:58;;;;;;;8.50;3.75;;;15.00;99.90;;;;;;5064140;28;20127;-78
2023/07/17 04:30:23;;;;;;;9.95;3.72;;;15.00;99.90;;;;;;5043442;28;20148;-77
2023/07/17 04:32:53;;;;;;;11.18;4.25;;;15.00;99.90;;;;;;5054284;28;20044;-78
2023/07/17 04:35:19;;;;;;;10.73;4.25;;;15.00;99.90;;;;;;5062513;28;20048;-78
2023/07/17 04:37:45;;;;;;;14.18;4.30;;;15.00;99.90;;;;;;5041173;28;20053;-77
2023/07/17 04:40:11;;;;;;;8.95;3.65;;;15.00;99.90;;;;;;5039765;28;20043;-77
2023/07/17 04:42:38;;;;;;;10.35;3.80;;;15.10;99.90;;;;;;5043005;28;20052;-78
2023/07/17 04:45:05;;;;;;;12.50;4.32;;;15.10;99.90;;;;;;5051909;28;20041;-78
2023/07/17 04:47:31;;;;;;;11.00;4.22;;;15.20;99.90;;;;;;5061873;28;20045;-78
2023/07/17 04:49:58;;;;;;;8.80;3.80;;;15.20;99.90;;;;;;5045699;28;20067;-79
2023/07/17 04:52:23;;;;;;;9.95;3.97;;;15.20;99.90;;;;;;5061587;28;20102;-78
2023/07/17 04:54:49;;;;;;;13.07;4.10;;;15.30;99.90;;;;;;5047517;28;20080;-77
2023/07/17 04:57:15;;;;;;;8.57;3.55;;;15.30;99.90;;;;;;5041673;28;20048;-78
2023/07/17 04:59:41;;;;;;;9.00;3.67;;;15.30;99.90;;;;;;5037812;28;20483;-77
2023/07/17 05:02:06;;;;;;;11.45;4.00;;;15.30;99.90;;;;;;5053128;28;20040;-78
2023/07/17 05:04:32;;;;;;;11.60;3.60;;;15.30;99.90;;;;;;5045909;28;20075;-76
2023/07/17 05:06:58;;;;;;;11.10;3.67;;;15.40;99.90;;;;;;5061551;28;20443;-77
2023/07/17 05:09:24;;;;;;;11.70;4.43;;;15.40;99.90;;;;;;5051976;28;20057;-77
2023/07/17 05:11:50;;;;;;;9.10;3.80;;;15.40;99.90;;;;;;5059780;28;20171;-77
2023/07/17 05:14:16;;;;;;;9.60;3.67;;;15.50;99.90;;;;;;5066813;28;20048;-78
2023/07/17 05:16:42;;;;;;;10.10;3.85;;;15.50;99.90;;;;;;5059808;28;20571;-77
2023/07/17 05:19:14;;;;;;;10.63;4.10;;;15.50;99.90;;;;;;5064024;28;20094;-78
2023/07/17 05:21:39;;;;;;;9.80;3.85;;;15.60;99.90;;;;;;5053349;28;20048;-78
2023/07/17 05:24:05;;;;;;;14.80;4.55;;;15.60;99.90;;;;;;5061387;28;20040;-77
2023/07/17 05:26:31;;;;;;;10.38;4.05;;;15.60;99.90;;;;;;5050922;28;20072;-78
2023/07/17 05:28:57;;;;;;;11.80;4.28;;;15.70;99.90;;;;;;5062437;28;20491;-77
2023/07/17 05:31:22;;;;;;;9.77;4.03;;;15.80;99.90;;;;;;5057775;28;20044;-78
2023/07/17 05:33:48;;;;;;;11.20;4.30;;;15.90;99.90;;;;;;5052763;28;20758;-77
2023/07/17 05:36:14;;;;;;;13.00;4.57;;;16.00;99.90;;;;;;5055644;28;20056;-77
2023/07/17 05:38:40;;;;;;;9.55;3.92;;;16.10;99.90;;;;;;5058624;28;20032;-77
2023/07/17 05:41:05;;;;;;;11.52;4.35;;;16.20;99.90;;;;;;5063308;28;20502;-77
2023/07/17 05:43:31;;;;;;;11.00;4.55;;;16.20;99.90;;;;;;5043244;28;20037;-78
2023/07/17 05:45:57;;;;;;;10.85;3.80;;;16.20;99.90;;;;;;5063627;28;20461;-80
2023/07/17 05:48:23;;;;;;;10.90;4.68;;;16.20;99.90;;;;;;5058888;28;20045;-79
2023/07/17 05:50:49;;;;;;;11.77;4.53;;;16.20;99.90;;;;;;5045347;28;20050;-80
2023/07/17 05:53:18;;;;;;;10.57;4.32;;;16.20;99.90;;;;;;5066525;28;20062;-79
2023/07/17 05:55:44;;;;;;;9.65;4.45;;;16.20;99.90;;;;;;5036219;28;20394;-79
2023/07/17 05:58:10;;;;;;;12.88;5.10;;;16.20;99.90;;;;;;5049149;28;20044;-79
2023/07/17 06:00:35;;;;;;;12.27;4.88;;;16.30;99.90;;;;;;5056255;28;20040;-80
2023/07/17 06:03:01;;;;;;;12.10;4.80;;;16.30;99.90;;;;;;5043913;28;20502;-80
2023/07/17 06:05:27;;;;;;;10.25;4.85;;;16.20;99.90;;;;;;5063591;28;20597;-80
2023/07/17 06:07:53;;;;;;;11.40;5.07;;;16.30;99.90;;;;;;5065189;28;20533;-79
2023/07/17 06:10:18;;;;;;;9.55;5.03;;;16.30;99.90;;;;;;5061613;28;20053;-80
2023/07/17 06:12:44;;;;;;;12.13;5.20;;;16.30;99.90;;;;;;5050414;28;20040;-80
2023/07/17 06:15:13;;;;;;;11.95;5.15;;;16.40;99.90;;;;;;5044950;28;20045;-78
2023/07/17 06:17:39;;;;;;;11.85;5.32;;;16.50;99.90;;;;;;5047507;28;20049;-80
2023/07/17 06:20:13;;;;;;;12.88;5.68;;;16.50;99.90;;;;;;5049335;28;20446;-79
2023/07/17 06:22:39;;;;;;;13.57;5.25;;;16.50;99.90;;;;;;5047458;28;20040;-79
2023/07/17 06:25:05;;;;;;;11.60;5.38;;;16.60;99.90;;;;;;5066371;28;20041;-79
2023/07/17 06:27:32;;;;;;;13.05;5.63;;;16.70;99.90;;;;;;5052048;28;20379;-79
2023/07/17 06:29:58;;;;;;;12.68;5.32;;;16.70;99.90;;;;;;5045075;28;20138;-80
2023/07/17 06:32:23;;;;;;;10.18;5.18;;;16.70;99.90;;;;;;5065470;28;20079;-79
2023/07/17 06:34:49;;;;;;;10.50;5.30;;;16.70;99.90;;;;;;5048286;28;20052;-80
2023/07/17 06:37:15;;;;;;;11.98;5.15;;;16.70;99.90;;;;;;5048900;28;20690;-79
2023/07/17 06:39:41;;;;;;;10.82;5.20;;;16.70;99.90;;;;;;5058172;28;20495;-79
2023/07/17 06:42:08;;;;;;;13.00;5.80;;;16.70;99.90;;;;;;5056185;28;20045;-80
2023/07/17 06:44:34;;;;;;;9.65;5.10;;;16.70;99.90;;;;;;5050270;28;20076;-80
2023/07/17 06:47:00;;;;;;;15.93;6.43;;;16.70;99.90;;;;;;5045542;28;20048;-80
2023/07/17 06:49:26;;;;;;;11.60;5.68;;;16.80;99.90;;;;;;5059579;28;20045;-80
2023/07/17 06:51:52;;;;;;;14.07;6.15;;;16.90;99.90;;;;;;5045454;28;20037;-79
2023/07/17 06:54:18;;;;;;;12.75;6.35;;;16.90;99.90;;;;;;5039927;28;20098;-79
2023/07/17 06:56:43;;;;;;;11.10;6.30;;;17.00;99.90;;;;;;5051965;28;20048;-80
2023/07/17 06:59:09;;;;;;;13.75;6.28;;;17.10;99.90;;;;;;5042833;28;20671;-81
2023/07/17 07:01:35;;;;;;;14.00;6.72;;;17.20;99.90;;;;;;5048026;28;22376;-80
2023/07/17 07:04:01;;;;;;;11.93;6.32;;;17.30;99.90;;;;;;5059898;28;20043;-80
2023/07/17 07:06:26;;;;;;;13.63;6.25;;;17.40;99.90;;;;;;5066792;28;20093;-80
2023/07/17 07:08:52;;;;;;;13.82;6.53;;;17.40;99.90;;;;;;5058594;28;20407;-80
2023/07/17 07:11:18;;;;;;;13.90;6.45;;;17.50;99.90;;;;;;5059492;28;21102;-80
2023/07/17 07:13:44;;;;;;;14.10;6.78;;;17.50;99.90;;;;;;5049465;28;20036;-78
2023/07/17 07:16:10;;;;;;;14.60;7.28;;;17.50;99.90;;;;;;5048396;28;20037;-81
2023/07/17 07:18:36;;;;;;;14.32;7.15;;;17.40;99.90;;;;;;5058636;28;20041;-81
2023/07/17 07:21:03;;;;;;;13.05;6.90;;;17.40;99.90;;;;;;5059643;28;20115;-80
2023/07/17 07:23:29;;;;;;;11.85;6.38;;;17.50;99.90;;;;;;5047401;28;20086;-79
2023/07/17 07:25:54;;;;;;;13.02;6.88;;;17.60;99.90;;;;;;5054869;28;22505;-80
2023/07/17 07:28:21;;;;;;;13.23;6.90;;;17.80;99.90;;;;;;5059831;28;20045;-80
2023/07/17 07:30:48;;;;;;;11.70;6.65;;;17.90;99.90;;;;;;5051686;28;20048;-81
2023/07/17 07:33:14;;;;;;;12.32;6.45;;;18.00;99.90;;;;;;5046354;28;20532;-81
2023/07/17 07:35:44;;;;;;;12.23;6.10;;;18.00;99.90;;;;;;5051496;28;20115;-79
2023/07/17 07:38:10;;;;;;;12.00;6.57;;;18.10;99.90;;;;;;5044664;28;20051;-82
2023/07/17 07:40:35;;;;;;;11.25;7.05;;;18.20;99.90;;;;;;5056399;28;20048;-81
2023/07/17 07:43:02;;;;;;;13.40;6.65;;;18.40;99.90;;;;;;5059360;28;20124;-82
2023/07/17 07:45:27;;;;;;;14.07;5.97;;;18.50;99.90;;;;;;5058535;28;20305;-81
2023/07/17 07:47:54;;;;;;;11.85;6.15;;;18.50;99.90;;;;;;5062495;28;20056;-81
2023/07/17 07:50:21;;;;;;;10.57;5.88;;;18.70;99.90;;;;;;5058677;28;20377;-81
2023/07/17 07:52:47;;;;;;;12.05;6.00;;;18.70;99.90;;;;;;5065257;28;20049;-82
2023/07/17 07:55:12;;;;;;;14.18;6.25;;;18.80;99.90;;;;;;5066081;28;20391;-81
2023/07/17 07:57:38;;;;;;;12.27;5.45;;;18.80;99.90;;;;;;5073336;28;20360;-81
2023/07/17 08:00:05;;;;;;;12.30;6.60;;;18.70;99.90;;;;;;5061251;28;20387;-80
2023/07/17 08:02:31;;;;;;;12.25;6.18;;;18.70;99.90;;;;;;5047142;28;20040;-81
2023/07/17 08:04:57;;;;;;;12.32;5.70;;;18.60;99.90;;;;;;5048817;28;20875;-81
2023/07/17 08:07:23;;;;;;;10.35;5.78;;;18.50;99.90;;;;;;5043690;28;20052;-80
2023/07/17 08:09:48;;;;;;;10.95;5.70;;;18.50;99.90;;;;;;5045264;28;20076;-81
2023/07/17 08:12:14;;;;;;;11.20;5.70;;;18.40;99.90;;;;;;5063842;28;20052;-81
2023/07/17 08:14:40;;;;;;;11.25;6.15;;;18.30;99.90;;;;;;5044652;28;20055;-81
2023/07/17 08:17:06;;;;;;;11.88;6.05;;;18.20;99.90;;;;;;5043497;28;20384;-80
2023/07/17 08:19:31;;;;;;;10.85;5.78;;;18.10;99.90;;;;;;5066596;28;20083;-81
2023/07/17 08:22:00;;;;;;;13.55;7.05;;;18.00;99.90;;;;;;5063908;28;20297;-81
2023/07/17 08:24:26;;;;;;;17.77;7.97;;;17.90;99.90;;;;;;5063344;28;20048;-81
2023/07/17 08:26:52;;;;;;;12.55;6.20;;;17.80;99.90;;;;;;5059197;28;20045;-82
2023/07/17 08:29:20;;;;;;;11.10;6.53;;;17.60;99.90;;;;;;5073173;28;20059;-82
2023/07/17 08:31:46;;;;;;;8.25;5.10;;;17.40;99.90;;;;;;5061522;28;20132;-82
2023/07/17 08:34:12;;;;;;;12.90;6.75;;;17.30;99.90;;;;;;5062444;28;20194;-80
2023/07/17 08:36:38;;;;;;;12.88;6.20;;;17.30;99.90;;;;;;5061992;28;20492;-82
2023/07/17 08:39:06;;;;;;;21.70;8.82;;;17.30;99.90;;;;;;5053434;28;20052;-81
2023/07/17 08:41:35;;;;;;;15.20;8.38;;;17.40;99.90;;;;;;5068074;28;20067;-81
2023/07/17 08:44:04;;;;;;;10.88;6.75;;;17.50;99.90;;;;;;5050856;28;20059;-82
2023/07/17 08:46:31;;;;;;;12.95;7.38;;;17.50;99.90;;;;;;5046869;28;20127;-82
2023/07/17 08:48:58;;;;;;;20.45;8.15;;;17.50;99.90;;;;;;5063135;28;20036;-82
2023/07/17 08:51:26;;;;;;;12.82;7.13;;;17.40;99.90;;;;;;5069765;28;20070;-82
2023/07/17 08:53:56;;;;;;;15.15;7.50;;;17.30;99.90;;;;;;5061332;28;20106;-81
2023/07/17 08:56:22;;;;;;;14.68;6.90;;;17.20;99.90;;;;;;5058759;28;20044;-82
2023/07/17 08:58:50;;;;;;;14.52;6.90;;;17.20;99.90;;;;;;5043762;28;20064;-83
2023/07/17 09:01:17;;;;;;;15.85;7.72;;;17.20;99.90;;;;;;5046231;28;20299;-81
2023/07/17 09:03:43;;;;;;;12.70;7.50;;;17.40;99.90;;;;;;5064462;28;20098;-82
2023/07/17 09:06:13;;;;;;;14.10;7.32;;;17.60;99.90;;;;;;5048165;28;20036;-81
2023/07/17 09:08:39;;;;;;;15.32;8.45;;;17.70;99.90;;;;;;5067502;28;20053;-81
2023/07/17 09:11:06;;;;;;;12.68;7.05;;;17.90;99.90;;;;;;5064939;28;20407;-79
2023/07/17 09:13:36;;;;;;;12.40;7.50;;;18.10;99.90;;;;;;5070832;28;20044;-80
2023/07/17 09:16:12;;;;;;;12.75;7.63;;;18.20;99.90;;;;;;5065628;28;20506;-80
2023/07/17 09:18:41;;;;;;;14.68;8.07;;;18.30;99.90;;;;;;5050312;28;20048;-80
2023/07/17 09:21:06;;;;;;;15.07;7.77;;;18.30;99.90;;;;;;5073876;28;20126;-83
2023/07/17 09:23:47;;;;;;;11.63;6.28;;;18.20;99.90;;;;;;5059795;28;20041;-82
2023/07/17 09:26:20;;;;;;;13.10;6.90;;;18.10;99.90;;;;;;5064673;28;20032;-83
2023/07/17 09:28:49;;;;;;;9.93;5.32;;;18.00;99.90;;;;;;5041323;28;20473;-82
2023/07/17 09:31:29;;;;;;;10.20;6.10;;;17.80;99.90;;;;;;5066729;28;20052;-81
2023/07/17 09:34:00;;;;;;;17.17;6.82;;;17.80;99.90;;;;;;5068516;28;20399;-82
2023/07/17 09:36:25;;;;;;;12.55;6.05;;;17.90;99.90;;;;;;5060049;28;20048;-81
2023/07/17 09:38:57;;;;;;;11.35;6.15;;;18.00;99.90;;;;;;5054732;28;20138;-80
2023/07/17 09:41:24;;;;;;;9.95;4.90;;;18.10;99.90;;;;;;5062106;28;20047;-80
2023/07/17 09:44:07;;;;;;;9.05;4.90;;;18.30;99.90;;;;;;5056570;28;20079;-80
2023/07/17 09:46:35;;;;;;;8.63;4.60;;;18.60;99.90;;;;;;5067123;28;20044;-80
2023/07/17 09:49:11;;;;;;;11.63;4.85;;;18.80;99.90;;;;;;5058872;28;20051;-81
2023/07/17 09:51:37;;;;;;;10.13;4.60;;;18.90;99.90;;;;;;5060063;28;20048;-81
2023/07/17 09:54:03;;;;;;;9.10;4.63;;;19.00;99.90;;;;;;5046136;28;20051;-81
2023/07/17 09:56:31;;;;;;;7.78;3.70;;;19.10;99.90;;;;;;5069733;28;20040;-80
2023/07/17 09:59:17;;;;;;;8.85;4.25;;;19.00;99.90;;;;;;5057372;28;20449;-79
2023/07/17 10:01:47;;;;;;;8.70;4.15;;;18.80;99.90;;;;;;5066295;28;20029;-79
2023/07/17 10:04:40;;;;;;;8.65;4.63;;;18.60;99.90;;;;;;5043213;28;20457;-79
2023/07/17 10:07:08;;;;;;;9.77;4.35;;;18.50;99.90;;;;;;5059025;28;20049;-79
2023/07/17 10:09:36;;;;;;;7.40;3.55;;;18.40;99.90;;;;;;5067622;28;20130;-79
2023/07/17 10:12:03;;;;;;;10.13;4.15;;;18.40;99.90;;;;;;5066328;28;20044;-78
2023/07/17 10:14:31;;;;;;;8.32;4.25;;;18.50;99.90;;;;;;5065711;28;20044;-79
2023/07/17 10:16:56;;;;;;;9.93;4.60;;;18.60;99.90;;;;;;5066545;28;20051;-79
2023/07/17 10:19:26;;;;;;;10.27;5.15;;;18.80;99.90;;;;;;5068593;28;20067;-79
2023/07/17 10:22:00;;;;;;;12.02;4.45;;;19.00;99.90;;;;;;5045785;28;20097;-78
2023/07/17 10:24:26;;;;;;;11.10;4.85;;;19.00;99.90;;;;;;5069766;28;20048;-79
2023/07/17 10:26:52;;;;;;;8.48;3.92;;;19.00;99.90;;;;;;5064902;28;20153;-79
2023/07/17 10:29:31;;;;;;;7.35;3.72;;;19.00;99.90;;;;;;5053015;28;20575;-78
2023/07/17 10:31:57;;;;;;;11.63;4.63;;;19.20;99.90;;;;;;5063338;28;20053;-78
2023/07/17 10:34:47;;;;;;;7.82;3.80;;;19.40;99.90;;;;;;5067917;28;20043;-79
2023/07/17 10:37:32;;;;;;;7.95;3.97;;;19.60;99.90;;;;;;5036773;28;20056;-80
2023/07/17 10:40:24;;;;;;;7.80;3.85;;;19.80;99.90;;;;;;5063446;28;20037;-78
2023/07/17 10:42:51;;;;;;;10.25;4.00;;;19.90;99.90;;;;;;5071303;28;20083;-79
2023/07/17 10:45:18;;;;;;;8.77;3.90;;;20.00;99.90;;;;;;5060484;28;20453;-79
2023/07/17 10:47:52;;;;;;;7.97;3.65;;;20.00;99.90;;;;;;5068366;28;20041;-79
2023/07/17 10:50:18;;;;;;;8.30;4.45;;;20.00;99.90;;;;;;5048691;28;20048;-80
2023/07/17 10:52:44;;;;;;;9.15;3.95;;;20.00;99.90;;;;;;5061854;28;20040;-80
2023/07/17 10:55:10;;;;;;;11.55;4.53;;;20.10;99.90;;;;;;5040995;28;20053;-80
2023/07/17 10:57:39;;;;;;;8.93;3.63;;;20.10;99.90;;;;;;5065907;28;20087;-78
2023/07/17 11:00:10;;;;;;;8.82;3.95;;;20.00;99.90;;;;;;5049513;28;20435;-79
2023/07/17 11:02:35;;;;;;;11.27;4.25;;;19.90;99.90;;;;;;5052939;28;20147;-80
2023/07/17 11:05:03;;;;;;;7.50;3.38;;;19.90;99.90;;;;;;5063703;28;20494;-79
2023/07/17 11:07:35;;;;;;;5.85;3.65;;;19.90;99.90;;;;;;5058288;28;20131;-80
2023/07/17 11:10:01;;;;;;;7.80;4.05;;;19.80;99.90;;;;;;5060451;28;20084;-79
2023/07/17 11:12:27;;;;;;;7.72;3.70;;;19.80;99.90;;;;;;5048915;28;20559;-79
2023/07/17 11:14:53;;;;;;;9.23;3.35;;;20.00;99.90;;;;;;5052778;28;20479;-79
2023/07/17 11:17:19;;;;;;;7.35;3.25;;;20.10;99.90;;;;;;5043520;28;20495;-79
2023/07/17 11:19:44;;;;;;;6.30;3.33;;;20.20;99.90;;;;;;5067350;28;20044;-80
2023/07/17 11:22:12;;;;;;;8.15;3.88;;;20.40;99.90;;;;;;5043729;28;20119;-79
2023/07/17 11:24:38;;;;;;;7.43;3.50;;;20.60;99.90;;;;;;5058901;28;20063;-76
2023/07/17 11:27:06;;;;;;;7.95;3.63;;;20.70;99.90;;;;;;5042040;28;20040;-75
2023/07/17 11:29:40;;;;;;;7.80;2.65;;;20.70;99.90;;;;;;5064428;28;20037;-74
2023/07/17 11:32:06;;;;;;;7.47;2.83;;;21.00;99.90;;;;;;5072068;28;20118;-74
2023/07/17 11:34:35;;;;;;;5.97;2.85;;;21.30;99.90;;;;;;5049692;28;20040;-74
2023/07/17 11:37:00;;;;;;;6.82;2.83;;;21.50;99.90;;;;;;5062162;28;20044;-74
2023/07/17 11:39:31;;;;;;;6.35;2.60;;;21.80;99.90;;;;;;5067674;28;20048;-74
2023/07/17 11:41:58;;;;;;;5.80;3.28;;;22.00;99.90;;;;;;5070937;28;20040;-74
2023/07/17 11:44:32;;;;;;;6.28;2.70;;;22.10;99.90;;;;;;5045082;28;20060;-74
2023/07/17 11:47:06;;;;;;;8.07;2.97;;;22.00;99.90;;;;;;5066021;28;20048;-75
2023/07/17 11:49:37;;;;;;;6.18;2.88;;;21.80;99.90;;;;;;5068208;28;20047;-74
2023/07/17 11:52:15;;;;;;;6.05;2.95;;;21.50;99.90;;;;;;5062740;28;20109;-75
2023/07/17 11:54:42;;;;;;;5.97;2.70;;;21.30;99.90;;;;;;5062615;28;20484;-73
2023/07/17 11:57:11;;;;;;;8.98;3.72;;;21.00;99.90;;;;;;5046063;28;20570;-74
2023/07/17 11:59:37;;;;;;;11.57;3.75;;;20.80;99.90;;;;;;5055792;28;20045;-75
2023/07/17 12:02:04;;;;;;;6.47;3.63;;;20.60;99.90;;;;;;5059110;28;20045;-74
2023/07/17 12:04:39;;;;;;;9.30;3.55;;;20.50;99.90;;;;;;5045928;28;20488;-75
2023/07/17 12:07:21;;;;;;;8.52;3.47;;;20.50;99.90;;;;;;5039741;28;20048;-74
2023/07/17 12:09:47;;;;;;;7.55;3.20;;;20.50;99.90;;;;;;5048241;28;20455;-74
2023/07/17 12:12:13;;;;;;;7.20;3.50;;;20.30;99.90;;;;;;5043016;28;20071;-74
2023/07/17 12:14:39;;;;;;;7.45;3.42;;;20.50;99.90;;;;;;5046480;28;20048;-74
2023/07/17 12:17:05;;;;;;;8.50;3.50;;;20.70;99.90;;;;;;5068227;28;20044;-74
2023/07/17 12:19:31;;;;;;;6.35;2.92;;;20.70;99.90;;;;;;5061612;28;20098;-74
2023/07/17 12:21:57;;;;;;;6.55;2.92;;;20.70;99.90;;;;;;5046682;28;20406;-74
2023/07/17 12:24:22;;;;;;;7.68;3.22;;;20.60;99.90;;;;;;5048813;28;20040;-74
2023/07/17 12:26:48;;;;;;;6.03;3.05;;;20.60;99.90;;;;;;5048829;28;20040;-76
2023/07/17 12:29:14;;;;;;;7.07;2.85;;;20.40;99.90;;;;;;5056774;28;20083;-76
2023/07/17 12:31:39;;;;;;;9.25;3.40;;;20.30;99.90;;;;;;5046135;28;20039;-75
2023/07/17 12:34:05;;;;;;;6.32;2.70;;;20.10;99.90;;;;;;5065659;28;20041;-75
2023/07/17 12:36:31;;;;;;;7.00;3.28;;;19.90;99.90;;;;;;5068578;28;20649;-75
2023/07/17 12:39:11;;;;;;;7.00;3.00;;;19.90;99.90;;;;;;5067365;28;20048;-76
2023/07/17 12:41:40;;;;;;;;;;;20.10;99.90;;;;;;5060780;28;20044;-76
2023/07/17 12:44:07;;;;;;;6.15;3.22;;;20.20;99.90;;;;;;5049312;28;19927;-75